• Join FlightAware (Why Join?)
  • Login
  • US Flag 
06:28AM EST


 

Airport Tracker/Info


-or-


 

Live Flight TrackerFlight Track Log ✈ CTL18 ✈ 20-May-2013 ✈ KPTK - KMBS

Flight Track Log - Related Links

Times and Time Zones

All times are in EDT time to prevent confusion due to time zone crossing. See the CTL18 flight status page for this flight to view local times or setup timezone preferences in your user account.

Time Position Orientation Groundspeed Altitude Reporting Facility
EDT Latitude Longitude Course Direction KTS MPH feet Rate Location/Type
07:11PM 42.6622 -83.4406 268° West 98 113 1,400  Level Cleveland Center
07:12PM 42.6614 -83.4831 268° West 110 127 2,200 720 Climbing Cleveland Center
07:13PM 42.6581 -83.5308 265° West 126 145 2,900 720 Climbing Cleveland Center
07:14PM 42.6611 -83.5761 275° West 120 138 3,700 540 Climbing Cleveland Center
07:15PM 42.6658 -83.6272 277° West 146 168 4,000 60 Climbing Cleveland Center
07:16PM 42.6706 -83.6839 276° West 135 155 3,900  Descending Cleveland Center
07:17PM 42.6839 -83.7383 288° West 151 174 4,000  Climbing Cleveland Center
07:18PM 42.6969 -83.7925 288° West 147 169 4,000  Level Cleveland Center
07:19PM 42.7017 -83.8436 277° West 147 169 4,000  Level Cleveland Center
07:21PM 42.7482 -83.8567 348° North  Level Estimated
07:28PM 42.9894 -83.9246 348° North  Level Estimated
07:29PM 43.0238 -83.9343 348° North  Level Estimated
07:30PM 43.0583 -83.9441 348° North  Level Estimated
07:31PM 43.0927 -83.9538 348° North  Level Estimated
07:32PM 43.1272 -83.9636 348° North  Level Estimated
07:33PM 43.1616 -83.9734 348° North  Level Estimated
07:34PM 43.1961 -83.9832 348° North  Level Estimated
07:35PM 43.2305 -83.9930 348° North  Level Estimated
07:36PM 43.2650 -84.0028 348° North  Level Estimated
07:37PM 43.2994 -84.0127 348° North  Level Estimated
07:38PM 43.3338 -84.0225 348° North  Level Estimated
07:39PM 43.3683 -84.0324 348° North  Level Estimated
07:40PM 43.4027 -84.0422 348° North  Level Estimated
07:41PM 43.4372 -84.0521 348° North  Level Estimated
07:42PM 43.4716 -84.0620 348° North  Level Estimated
07:43PM 43.5060 -84.0719 348° North  Level Estimated
07:44PM 43.5329 -84.0796 348° North  Level Estimated